Time;durP1;ratioP1;P1;durP2;ratioP2;P2;SDS_P1;SDS_P2;PMS_P1;PMS_P2;Temp;Humidity;BMP_temperature;BMP_pressure;BME280_temperature;BME280_humidity;BME280_pressure;Samples;Min_cycle;Max_cycle;Signal;HPM_P1;HPM_P2
2023/03/09 00:00:39;;;;;;;60.40;21.70;;;2.80;99.90;;;;;;5014962;28;20649;-80
2023/03/09 00:03:15;;;;;;;57.90;18.63;;;2.80;99.90;;;;;;5033178;28;20645;-80
2023/03/09 00:05:44;;;;;;;44.37;15.07;;;2.80;99.90;;;;;;4999900;28;20550;-80
2023/03/09 00:08:10;;;;;;;72.80;21.93;;;2.80;99.90;;;;;;5032672;28;20203;-81
2023/03/09 00:10:42;;;;;;;45.90;16.93;;;2.80;99.90;;;;;;5032349;28;20191;-81
2023/03/09 00:13:08;;;;;;;37.00;15.83;;;2.80;99.90;;;;;;5014992;28;20231;-80
2023/03/09 00:15:34;;;;;;;57.10;19.03;;;2.80;99.90;;;;;;5032648;28;20222;-81
2023/03/09 00:18:00;;;;;;;30.20;11.37;;;2.80;99.90;;;;;;5032738;28;20250;-80
2023/03/09 00:20:25;;;;;;;23.53;9.73;;;2.80;99.90;;;;;;5015033;28;20487;-81
2023/03/09 00:22:53;;;;;;;22.30;8.37;;;2.80;99.90;;;;;;5032674;28;20180;-81
2023/03/09 00:25:21;;;;;;;18.93;9.37;;;2.80;99.90;;;;;;5032953;28;20184;-80
2023/03/09 00:27:51;;;;;;;30.03;12.63;;;2.80;99.90;;;;;;5032538;28;20242;-81
2023/03/09 00:30:18;;;;;;;44.17;16.90;;;2.80;99.90;;;;;;5015751;28;20179;-81
2023/03/09 00:32:45;;;;;;;39.83;17.10;;;2.80;99.90;;;;;;5032367;28;20191;-81
2023/03/09 00:35:11;;;;;;;39.03;15.03;;;2.80;99.90;;;;;;5015139;28;20187;-80
2023/03/09 00:37:37;;;;;;;38.20;14.73;;;2.80;99.90;;;;;;5032057;28;20214;-80
2023/03/09 00:40:06;;;;;;;33.87;13.57;;;2.90;99.90;;;;;;5032601;28;20188;-80
2023/03/09 00:42:32;;;;;;;38.50;16.43;;;2.90;99.90;;;;;;5015118;28;20526;-80
2023/03/09 00:45:00;;;;;;;30.23;13.83;;;2.80;99.90;;;;;;5032631;28;20182;-80
2023/03/09 00:47:26;;;;;;;40.33;14.77;;;2.90;99.90;;;;;;5032202;28;20560;-80
2023/03/09 00:49:52;;;;;;;35.23;13.80;;;2.90;99.90;;;;;;5015111;28;20195;-80
2023/03/09 00:52:18;;;;;;;31.93;14.40;;;2.90;99.90;;;;;;5014893;28;20287;-80
2023/03/09 00:54:43;;;;;;;40.50;17.53;;;2.90;99.90;;;;;;5032400;28;20187;-80
2023/03/09 00:57:09;;;;;;;45.90;17.93;;;2.90;99.90;;;;;;5032501;28;20267;-80
2023/03/09 00:59:34;;;;;;;37.87;13.70;;;2.90;99.90;;;;;;4998351;28;20550;-81
2023/03/09 01:02:00;;;;;;;28.53;14.17;;;2.90;99.90;;;;;;4998382;28;20181;-80
2023/03/09 01:04:26;;;;;;;30.47;14.37;;;2.90;99.90;;;;;;5032559;28;20184;-81
2023/03/09 01:06:55;;;;;;;54.10;15.87;;;2.90;99.90;;;;;;5032062;28;20181;-80
2023/03/09 01:09:21;;;;;;;36.13;17.10;;;2.90;99.90;;;;;;5032426;28;20191;-80
2023/03/09 01:11:46;;;;;;;32.07;13.17;;;2.90;99.90;;;;;;5014658;28;20180;-80
2023/03/09 01:14:12;;;;;;;31.87;15.73;;;2.90;99.90;;;;;;5032519;28;20228;-80
2023/03/09 01:16:38;;;;;;;28.53;14.27;;;2.90;99.90;;;;;;5035017;28;20274;-81
2023/03/09 01:19:03;;;;;;;29.70;13.47;;;2.90;99.90;;;;;;5018548;28;20269;-80
2023/03/09 01:21:29;;;;;;;30.93;12.33;;;2.90;99.90;;;;;;5018096;28;20234;-84
2023/03/09 01:23:55;;;;;;;31.93;15.17;;;3.00;99.90;;;;;;5036049;28;20190;-80
2023/03/09 01:26:21;;;;;;;31.07;13.47;;;2.90;99.90;;;;;;5018340;28;20180;-80
2023/03/09 01:28:47;;;;;;;36.53;16.97;;;3.00;99.90;;;;;;5035436;28;20258;-80
2023/03/09 01:31:15;;;;;;;30.77;13.83;;;3.00;99.90;;;;;;5036196;28;20181;-80
2023/03/09 01:33:41;;;;;;;38.50;16.00;;;2.90;99.90;;;;;;5035383;28;20644;-81
2023/03/09 01:36:10;;;;;;;32.00;12.23;;;3.00;99.90;;;;;;5018028;28;20191;-80
2023/03/09 01:38:36;;;;;;;43.27;12.17;;;3.00;99.90;;;;;;5017703;28;20216;-81
2023/03/09 01:41:03;;;;;;;23.40;10.40;;;3.00;99.90;;;;;;5035832;28;20667;-80
2023/03/09 01:43:42;;;;;;;18.17;9.80;;;3.00;99.90;;;;;;5035589;28;20177;-80
2023/03/09 01:46:32;;;;;;;22.87;10.97;;;3.00;99.90;;;;;;5035677;28;20183;-80
2023/03/09 01:49:27;;;;;;;45.87;17.93;;;3.00;99.90;;;;;;5035750;28;20265;-80
2023/03/09 01:52:05;;;;;;;46.40;15.53;;;3.00;99.90;;;;;;5017985;28;20203;-80
2023/03/09 01:54:49;;;;;;;32.73;15.03;;;3.00;99.90;;;;;;5035432;28;20176;-80
2023/03/09 01:57:30;;;;;;;31.87;15.17;;;3.00;99.90;;;;;;5035379;28;20180;-80
2023/03/09 02:00:04;;;;;;;26.27;13.13;;;3.00;99.90;;;;;;5035132;28;20183;-81
2023/03/09 02:02:33;;;;;;;34.17;14.67;;;3.00;99.90;;;;;;5035159;28;20203;-80
2023/03/09 02:05:03;;;;;;;24.13;11.37;;;3.00;99.90;;;;;;5035323;28;20180;-80
2023/03/09 02:07:34;;;;;;;24.20;11.80;;;3.00;99.90;;;;;;5035416;28;20215;-80
2023/03/09 02:10:10;;;;;;;16.90;10.70;;;3.00;99.90;;;;;;5035284;28;20179;-80
2023/03/09 02:12:37;;;;;;;25.17;11.00;;;3.00;99.90;;;;;;5034583;28;20227;-82
2023/03/09 02:15:03;;;;;;;21.70;11.70;;;3.00;99.90;;;;;;5035125;28;20172;-80
2023/03/09 02:17:29;;;;;;;20.10;11.40;;;3.00;99.90;;;;;;5034714;28;20216;-81
2023/03/09 02:20:25;;;;;;;13.60;9.17;;;3.00;99.90;;;;;;5034453;28;20634;-80
2023/03/09 02:22:51;;;;;;;30.47;10.87;;;3.00;99.90;;;;;;5016744;28;20180;-80
2023/03/09 02:25:37;;;;;;;27.70;11.43;;;3.10;99.90;;;;;;5016955;28;20242;-80
2023/03/09 02:28:05;;;;;;;27.93;10.27;;;3.00;99.90;;;;;;5033709;28;20691;-80
2023/03/09 02:30:35;;;;;;;18.60;9.30;;;3.00;99.90;;;;;;5034769;28;20180;-80
2023/03/09 02:33:11;;;;;;;17.20;9.30;;;3.00;99.90;;;;;;5034187;28;20172;-80
2023/03/09 02:35:37;;;;;;;24.93;10.17;;;3.00;99.90;;;;;;5034890;28;20644;-80
2023/03/09 02:38:02;;;;;;;20.67;10.47;;;3.00;99.90;;;;;;5000392;28;20253;-80
2023/03/09 02:40:35;;;;;;;18.13;9.57;;;3.10;99.90;;;;;;5034323;28;20218;-81
2023/03/09 02:43:03;;;;;;;29.97;11.50;;;3.10;99.90;;;;;;5034305;28;20190;-80
2023/03/09 02:45:30;;;;;;;16.57;10.43;;;3.10;99.90;;;;;;5034587;28;20181;-80
2023/03/09 02:47:57;;;;;;;18.27;9.70;;;3.10;99.90;;;;;;5033986;28;20199;-80
2023/03/09 02:50:23;;;;;;;26.43;11.27;;;3.10;99.90;;;;;;5034368;28;20237;-81
2023/03/09 02:52:49;;;;;;;26.40;11.50;;;3.10;99.90;;;;;;5033962;28;20176;-80
2023/03/09 02:55:15;;;;;;;43.97;15.30;;;3.10;99.90;;;;;;5034135;28;20634;-80
2023/03/09 02:57:41;;;;;;;31.97;12.87;;;3.10;99.90;;;;;;5034016;28;20612;-85
2023/03/09 03:00:10;;;;;;;32.57;13.83;;;3.10;99.90;;;;;;5034143;28;20180;-80
2023/03/09 03:02:37;;;;;;;36.37;13.53;;;3.10;99.90;;;;;;5016628;28;20231;-80
2023/03/09 03:05:03;;;;;;;35.60;13.93;;;3.10;99.90;;;;;;5033475;28;20242;-81
2023/03/09 03:07:28;;;;;;;28.07;11.30;;;3.10;99.90;;;;;;4999747;28;20319;-80
2023/03/09 03:09:54;;;;;;;28.53;12.60;;;3.10;99.90;;;;;;5033480;28;20226;-80
2023/03/09 03:12:20;;;;;;;29.20;13.07;;;3.10;99.90;;;;;;5016438;28;20235;-81
2023/03/09 03:14:45;;;;;;;51.17;12.80;;;3.10;99.90;;;;;;5033779;28;20173;-81
2023/03/09 03:17:11;;;;;;;38.07;13.70;;;3.10;99.90;;;;;;5016183;28;20575;-81
2023/03/09 03:19:37;;;;;;;37.77;12.13;;;3.10;99.90;;;;;;5034010;28;20185;-80
2023/03/09 03:22:03;;;;;;;34.77;14.97;;;3.10;99.90;;;;;;5015828;28;20541;-80
2023/03/09 03:24:29;;;;;;;28.37;12.70;;;3.10;99.90;;;;;;5016066;28;20642;-80
2023/03/09 03:26:55;;;;;;;26.90;12.93;;;3.10;99.90;;;;;;5033542;28;20187;-80
2023/03/09 03:29:20;;;;;;;25.87;12.60;;;3.10;99.90;;;;;;5015947;28;20279;-80
2023/03/09 03:31:46;;;;;;;24.50;11.87;;;3.20;99.90;;;;;;5033541;28;20234;-80
2023/03/09 03:34:12;;;;;;;21.53;10.73;;;3.20;99.90;;;;;;5033821;28;20184;-79
2023/03/09 03:36:38;;;;;;;18.70;9.80;;;3.20;99.90;;;;;;5015747;28;20227;-81
2023/03/09 03:39:05;;;;;;;27.87;12.37;;;3.20;99.90;;;;;;5032690;28;20315;-80
2023/03/09 03:41:31;;;;;;;35.27;14.53;;;3.20;99.90;;;;;;5015952;28;20254;-79
2023/03/09 03:43:57;;;;;;;26.83;12.23;;;3.10;99.90;;;;;;5033590;28;20191;-80
2023/03/09 03:46:22;;;;;;;28.73;12.00;;;3.00;99.90;;;;;;5015763;28;20187;-79
2023/03/09 03:48:48;;;;;;;19.37;9.17;;;3.00;99.90;;;;;;5032952;28;20191;-82
2023/03/09 03:51:14;;;;;;;29.57;12.27;;;2.90;99.90;;;;;;5015449;28;20254;-79
2023/03/09 03:53:40;;;;;;;17.77;9.13;;;2.90;99.90;;;;;;5015827;28;20187;-80
2023/03/09 03:56:06;;;;;;;22.77;10.87;;;2.80;99.90;;;;;;5033095;28;20688;-80
2023/03/09 03:58:31;;;;;;;29.73;9.37;;;2.80;99.90;;;;;;5033357;28;20306;-80
2023/03/09 04:00:57;;;;;;;15.93;9.20;;;2.80;99.90;;;;;;5032730;28;20212;-79
2023/03/09 04:03:23;;;;;;;17.03;9.97;;;2.80;99.90;;;;;;4982881;28;20661;-79
2023/03/09 04:05:49;;;;;;;19.30;10.17;;;2.80;99.90;;;;;;5033220;28;20177;-84
2023/03/09 04:08:15;;;;;;;23.07;10.50;;;2.80;99.90;;;;;;5032864;28;20191;-79
2023/03/09 04:10:41;;;;;;;11.37;7.17;;;2.80;99.90;;;;;;5033089;28;20202;-80
2023/03/09 04:13:07;;;;;;;29.40;8.93;;;2.80;99.90;;;;;;5014653;28;20267;-80
2023/03/09 04:15:33;;;;;;;20.30;10.10;;;2.80;99.90;;;;;;5015167;28;20207;-80
2023/03/09 04:17:59;;;;;;;16.80;9.20;;;2.70;99.90;;;;;;5015483;28;20212;-80
2023/03/09 04:20:25;;;;;;;20.27;8.83;;;2.80;99.90;;;;;;5032885;28;20177;-80
2023/03/09 04:22:52;;;;;;;20.13;8.37;;;2.70;99.90;;;;;;5032647;28;20184;-83
2023/03/09 04:25:17;;;;;;;20.23;9.13;;;2.70;99.90;;;;;;5032592;28;20180;-80
2023/03/09 04:27:43;;;;;;;12.90;7.57;;;2.70;99.90;;;;;;5033214;28;20731;-79
2023/03/09 04:30:11;;;;;;;18.70;9.10;;;2.70;99.90;;;;;;5014921;28;20177;-80
2023/03/09 04:32:37;;;;;;;19.00;9.37;;;2.70;99.90;;;;;;5032652;28;20229;-80
2023/03/09 04:35:03;;;;;;;18.13;9.13;;;2.70;99.90;;;;;;5032568;28;20626;-80
2023/03/09 04:37:29;;;;;;;24.77;9.93;;;2.60;99.90;;;;;;5015212;28;20199;-80
2023/03/09 04:39:54;;;;;;;26.33;11.03;;;2.70;99.90;;;;;;5033275;28;20231;-81
2023/03/09 04:42:20;;;;;;;24.27;10.93;;;2.70;99.90;;;;;;5015231;28;20512;-80
2023/03/09 04:44:46;;;;;;;24.40;9.57;;;2.60;99.90;;;;;;5032675;28;20203;-80
2023/03/09 04:47:12;;;;;;;24.60;11.13;;;2.60;99.90;;;;;;5032544;28;20183;-80
2023/03/09 04:49:39;;;;;;;24.77;11.33;;;2.60;99.90;;;;;;5014833;28;20263;-79
2023/03/09 04:52:05;;;;;;;20.97;9.33;;;2.60;99.90;;;;;;5035682;28;20172;-80
2023/03/09 04:54:31;;;;;;;19.83;10.87;;;2.60;99.90;;;;;;5036524;28;20207;-80
2023/03/09 04:56:57;;;;;;;24.57;11.00;;;2.60;99.90;;;;;;5036170;28;20208;-81
2023/03/09 04:59:23;;;;;;;17.40;9.90;;;2.50;99.90;;;;;;5036444;28;20215;-80
2023/03/09 05:01:48;;;;;;;17.37;9.83;;;2.60;99.90;;;;;;5036021;28;20527;-80
2023/03/09 05:04:14;;;;;;;15.87;7.93;;;2.50;99.90;;;;;;5001809;28;20195;-80
2023/03/09 05:06:40;;;;;;;13.03;5.37;;;2.50;99.90;;;;;;5036403;28;20187;-79
2023/03/09 05:09:05;;;;;;;14.30;7.63;;;2.40;99.90;;;;;;5018348;28;20320;-79
2023/03/09 05:11:32;;;;;;;11.37;6.87;;;2.40;99.90;;;;;;5033636;28;20255;-80
2023/03/09 05:13:58;;;;;;;9.23;6.40;;;2.40;99.90;;;;;;5021303;28;20617;-80
2023/03/09 05:16:23;;;;;;;12.67;6.87;;;2.40;99.90;;;;;;5055564;28;20228;-80
2023/03/09 05:18:50;;;;;;;15.07;6.43;;;2.40;99.90;;;;;;5055581;28;20290;-79
2023/03/09 05:21:17;;;;;;;9.03;6.23;;;2.40;99.90;;;;;;5055449;28;20229;-79
2023/03/09 05:23:42;;;;;;;12.30;6.63;;;2.40;99.90;;;;;;5055702;28;20191;-80
2023/03/09 05:26:08;;;;;;;10.87;6.40;;;2.40;99.90;;;;;;5037955;28;20668;-80
2023/03/09 05:28:35;;;;;;;14.77;6.20;;;2.30;99.90;;;;;;5038036;28;20675;-81
2023/03/09 05:31:01;;;;;;;11.00;5.77;;;2.30;99.90;;;;;;5037216;28;20651;-80
2023/03/09 05:33:28;;;;;;;10.03;5.53;;;2.20;99.90;;;;;;5054600;28;20629;-80
2023/03/09 05:35:54;;;;;;;14.53;6.60;;;2.20;99.90;;;;;;5048118;28;20279;-80
2023/03/09 05:38:20;;;;;;;14.37;6.20;;;2.20;99.90;;;;;;5034202;28;20274;-81
2023/03/09 05:40:45;;;;;;;13.23;5.37;;;2.20;99.90;;;;;;5016769;28;20177;-80
2023/03/09 05:43:11;;;;;;;10.87;6.47;;;2.10;99.90;;;;;;5016667;28;20181;-80
2023/03/09 05:45:37;;;;;;;18.67;6.50;;;2.20;99.90;;;;;;5034430;28;20233;-81
2023/03/09 05:48:03;;;;;;;15.43;6.10;;;2.10;99.90;;;;;;5034346;28;20274;-80
2023/03/09 05:50:29;;;;;;;13.87;5.23;;;2.00;99.90;;;;;;5016694;28;20187;-79
2023/03/09 05:52:54;;;;;;;17.13;7.47;;;2.10;99.90;;;;;;5017074;28;20195;-80
2023/03/09 05:55:20;;;;;;;8.63;4.27;;;2.00;99.90;;;;;;5034079;28;20595;-80
2023/03/09 05:57:46;;;;;;;8.37;4.00;;;2.00;99.90;;;;;;5033890;28;20219;-81
2023/03/09 06:00:12;;;;;;;9.13;4.57;;;2.00;99.90;;;;;;5000100;28;20184;-79
2023/03/09 06:02:38;;;;;;;8.90;5.23;;;2.00;99.90;;;;;;5033751;28;20177;-80
2023/03/09 06:05:04;;;;;;;5.00;4.10;;;2.00;99.90;;;;;;5034362;28;20619;-81
2023/03/09 06:07:30;;;;;;;9.80;3.10;;;2.00;99.90;;;;;;5034523;28;20233;-79
2023/03/09 06:09:56;;;;;;;5.80;3.73;;;1.90;99.90;;;;;;5050963;28;20191;-81
2023/03/09 06:12:22;;;;;;;4.67;3.23;;;1.90;99.90;;;;;;5054125;28;20238;-80
2023/03/09 06:14:49;;;;;;;8.90;2.73;;;1.90;99.90;;;;;;5055254;28;20240;-80
2023/03/09 06:17:16;;;;;;;9.60;2.97;;;1.80;99.90;;;;;;5024786;28;20207;-80
2023/03/09 06:19:41;;;;;;;4.77;3.20;;;1.80;99.90;;;;;;5008265;28;20226;-81
2023/03/09 06:22:07;;;;;;;4.97;3.10;;;1.80;99.90;;;;;;5000284;28;20308;-82
2023/03/09 06:24:33;;;;;;;4.97;3.47;;;1.80;99.90;;;;;;5057299;28;20506;-82
2023/03/09 06:26:59;;;;;;;7.23;3.07;;;1.80;99.90;;;;;;5066460;28;20189;-81
2023/03/09 06:29:26;;;;;;;8.20;2.93;;;1.80;99.90;;;;;;5050527;28;20203;-81
2023/03/09 06:31:51;;;;;;;4.40;2.73;;;1.80;99.90;;;;;;5072301;28;20190;-82
2023/03/09 06:34:17;;;;;;;9.53;4.37;;;1.70;99.90;;;;;;5051924;28;20186;-82
2023/03/09 06:36:43;;;;;;;6.77;3.27;;;1.80;99.90;;;;;;5063537;28;20202;-82
2023/03/09 06:39:09;;;;;;;6.87;3.10;;;1.70;99.90;;;;;;5052184;28;20243;-83
2023/03/09 06:41:36;;;;;;;5.37;3.30;;;1.70;99.90;;;;;;5053590;28;20217;-84
2023/03/09 06:44:02;;;;;;;6.43;3.63;;;1.70;99.90;;;;;;5041823;28;20237;-82
2023/03/09 06:46:28;;;;;;;5.87;3.40;;;1.70;99.90;;;;;;5015244;28;20196;-82
2023/03/09 06:48:54;;;;;;;11.43;4.07;;;1.70;99.90;;;;;;5029615;28;20187;-83
2023/03/09 06:51:19;;;;;;;6.93;4.57;;;1.60;99.90;;;;;;5019092;28;20186;-82
2023/03/09 06:53:45;;;;;;;5.67;3.70;;;1.60;99.90;;;;;;5053490;28;20276;-82
2023/03/09 06:56:11;;;;;;;4.37;3.33;;;1.60;99.90;;;;;;5035265;28;20273;-82
2023/03/09 06:58:38;;;;;;;7.67;3.83;;;1.60;99.90;;;;;;5034932;28;20238;-81
2023/03/09 07:01:08;;;;;;;3.90;3.30;;;1.70;99.90;;;;;;5032900;28;20649;-79
2023/03/09 07:03:34;;;;;;;2.50;2.13;;;1.70;99.90;;;;;;5022984;28;20184;-80
2023/03/09 07:06:00;;;;;;;4.00;2.63;;;1.70;99.90;;;;;;5044382;28;20180;-81
2023/03/09 07:08:25;;;;;;;4.43;2.73;;;1.70;99.90;;;;;;5040010;28;20696;-81
2023/03/09 07:10:51;;;;;;;2.87;2.00;;;1.70;99.90;;;;;;5023836;28;20554;-81
2023/03/09 07:13:17;;;;;;;5.00;3.00;;;1.70;99.90;;;;;;5040826;28;20699;-83
2023/03/09 07:15:43;;;;;;;6.67;3.80;;;1.70;99.90;;;;;;5043306;28;20187;-81
2023/03/09 07:18:09;;;;;;;3.47;2.73;;;1.70;99.90;;;;;;5011261;28;20248;-82
2023/03/09 07:20:38;;;;;;;2.90;2.53;;;1.60;99.90;;;;;;5023276;28;20193;-82
2023/03/09 07:23:03;;;;;;;7.77;2.73;;;1.70;99.90;;;;;;5043936;28;20180;-82
2023/03/09 07:25:33;;;;;;;7.97;4.70;;;1.70;99.90;;;;;;5041223;28;20183;-82
2023/03/09 07:28:03;;;;;;;7.20;3.50;;;1.70;99.90;;;;;;5024835;28;20191;-79
2023/03/09 07:30:29;;;;;;;14.23;3.27;;;1.60;99.90;;;;;;5040483;28;20182;-80
2023/03/09 07:32:59;;;;;;;3.27;2.97;;;1.60;99.90;;;;;;5048902;28;20181;-81
2023/03/09 07:35:25;;;;;;;7.03;3.50;;;1.60;99.90;;;;;;5049164;28;20247;-81
2023/03/09 07:37:52;;;;;;;4.87;3.03;;;1.70;99.90;;;;;;5041290;28;20234;-82
2023/03/09 07:40:18;;;;;;;6.00;3.03;;;1.60;99.90;;;;;;5045078;28;20191;-83
2023/03/09 07:42:49;;;;;;;8.57;4.20;;;1.60;99.90;;;;;;5023276;28;20188;-81
2023/03/09 07:45:15;;;;;;;10.43;3.60;;;1.60;99.90;;;;;;5021805;28;20522;-80
2023/03/09 07:47:42;;;;;;;14.23;4.93;;;1.60;99.90;;;;;;5024886;28;20562;-79
2023/03/09 07:50:08;;;;;;;11.67;3.40;;;1.60;99.90;;;;;;5008634;28;20186;-81
2023/03/09 07:52:34;;;;;;;6.23;2.70;;;1.60;99.90;;;;;;5040467;28;20178;-82
2023/03/09 07:55:02;;;;;;;5.23;2.90;;;1.60;99.90;;;;;;5008651;28;20183;-81
2023/03/09 07:57:32;;;;;;;3.30;2.73;;;1.60;99.90;;;;;;5015508;28;20193;-83
2023/03/09 07:59:59;;;;;;;5.13;2.37;;;1.60;99.90;;;;;;5003452;28;20183;-82
2023/03/09 08:02:24;;;;;;;8.03;3.17;;;1.60;99.90;;;;;;4998093;28;20189;-82
2023/03/09 08:04:51;;;;;;;7.60;3.70;;;1.70;99.90;;;;;;5017216;28;20563;-82
2023/03/09 08:07:17;;;;;;;2.67;2.47;;;1.60;99.90;;;;;;5014006;28;20585;-83
2023/03/09 08:09:43;;;;;;;4.57;2.53;;;1.60;99.90;;;;;;5024201;28;20281;-80
2023/03/09 08:12:10;;;;;;;14.37;4.70;;;1.50;99.90;;;;;;5041958;28;20631;-81
2023/03/09 08:14:36;;;;;;;2.47;2.03;;;1.60;99.90;;;;;;5024809;28;20188;-81
2023/03/09 08:17:03;;;;;;;6.03;2.50;;;1.60;99.90;;;;;;5025137;28;20181;-80
2023/03/09 08:19:30;;;;;;;6.45;3.50;;;1.60;99.90;;;;;;5005350;28;20449;-79
2023/03/09 08:21:56;;;;;;;16.67;4.10;;;1.60;99.90;;;;;;5040442;28;20175;-80
2023/03/09 08:24:22;;;;;;;5.33;2.53;;;1.60;99.90;;;;;;5039212;28;20175;-83
2023/03/09 08:26:48;;;;;;;7.30;2.30;;;1.60;99.90;;;;;;5045545;28;20168;-82
2023/03/09 08:29:14;;;;;;;15.50;2.97;;;1.50;99.90;;;;;;5028940;28;20192;-82
2023/03/09 08:31:40;;;;;;;8.47;3.00;;;1.60;99.90;;;;;;5025839;28;20541;-82
2023/03/09 08:34:05;;;;;;;9.23;2.87;;;1.60;99.90;;;;;;5045474;28;20200;-82
2023/03/09 08:36:34;;;;;;;8.43;3.43;;;1.50;99.90;;;;;;5047989;28;20255;-82
2023/03/09 08:39:00;;;;;;;6.87;3.90;;;1.50;99.90;;;;;;5048665;28;20199;-82
2023/03/09 08:41:27;;;;;;;2.87;2.10;;;1.40;99.90;;;;;;5030088;28;20180;-83
2023/03/09 08:43:54;;;;;;;8.90;2.57;;;1.40;99.90;;;;;;5044665;28;20515;-81
2023/03/09 08:46:20;;;;;;;4.87;3.03;;;1.50;99.90;;;;;;5033346;28;20219;-80
2023/03/09 08:48:48;;;;;;;7.33;3.97;;;1.40;99.90;;;;;;5028219;28;20173;-81
2023/03/09 08:51:14;;;;;;;9.87;5.33;;;1.40;99.90;;;;;;5031605;28;20258;-83
2023/03/09 08:53:40;;;;;;;5.03;2.43;;;1.40;99.90;;;;;;5036294;28;20180;-81
2023/03/09 08:56:10;;;;;;;13.40;3.73;;;1.40;99.90;;;;;;5019685;28;20545;-82
2023/03/09 08:58:37;;;;;;;7.63;3.87;;;1.40;99.90;;;;;;5036546;28;20687;-81
2023/03/09 09:01:08;;;;;;;8.97;7.13;;;1.40;99.90;;;;;;5036850;28;20174;-83
2023/03/09 09:03:35;;;;;;;14.70;7.10;;;1.50;99.90;;;;;;5019424;28;20815;-82
2023/03/09 09:06:06;;;;;;;6.10;4.57;;;1.50;99.90;;;;;;5055077;28;20639;-82
2023/03/09 09:08:34;;;;;;;10.40;4.13;;;1.50;99.90;;;;;;5030790;28;20184;-82
2023/03/09 09:11:03;;;;;;;4.07;3.67;;;1.40;99.90;;;;;;5027184;28;20188;-83
2023/03/09 09:13:29;;;;;;;7.57;3.90;;;1.40;99.90;;;;;;5009546;28;20235;-82
2023/03/09 09:15:55;;;;;;;6.50;3.13;;;1.40;99.90;;;;;;5027941;28;20585;-82
2023/03/09 09:18:21;;;;;;;9.10;4.17;;;1.40;99.90;;;;;;5047791;28;20650;-81
2023/03/09 09:20:47;;;;;;;8.87;3.43;;;1.40;99.90;;;;;;5024585;28;20190;-82
2023/03/09 09:23:14;;;;;;;6.57;4.53;;;1.30;99.90;;;;;;5023488;28;20191;-82
2023/03/09 09:25:39;;;;;;;6.73;4.40;;;1.40;99.90;;;;;;5033946;28;20178;-81
2023/03/09 09:28:05;;;;;;;8.47;4.10;;;1.40;99.90;;;;;;5020603;28;20214;-82
2023/03/09 09:30:32;;;;;;;13.57;4.30;;;1.50;99.90;;;;;;5019749;28;20211;-82
2023/03/09 09:32:59;;;;;;;8.23;2.90;;;1.50;99.90;;;;;;5036162;28;20539;-83
2023/03/09 09:35:25;;;;;;;6.23;3.33;;;1.50;99.90;;;;;;5054695;28;20307;-82
2023/03/09 09:37:54;;;;;;;6.17;2.67;;;1.50;99.90;;;;;;5036517;28;20218;-82
2023/03/09 09:40:20;;;;;;;8.27;3.60;;;1.50;99.90;;;;;;5054577;28;20176;-80
2023/03/09 09:42:47;;;;;;;3.73;2.70;;;1.50;99.90;;;;;;5036739;28;20195;-80
2023/03/09 09:45:21;;;;;;;3.30;2.60;;;1.50;99.90;;;;;;5036521;28;20271;-82
2023/03/09 09:47:47;;;;;;;8.50;3.90;;;1.40;99.90;;;;;;5036725;28;20519;-80
2023/03/09 09:50:14;;;;;;;5.50;4.40;;;1.40;99.90;;;;;;5054054;28;20210;-80
2023/03/09 09:52:55;;;;;;;7.37;3.67;;;1.40;99.90;;;;;;5054425;28;20179;-81
2023/03/09 09:55:28;;;;;;;4.40;2.70;;;1.40;99.90;;;;;;5054057;28;20172;-78
2023/03/09 09:58:29;;;;;;;5.10;3.27;;;1.30;99.90;;;;;;5057877;28;20215;-81
2023/03/09 10:00:59;;;;;;;3.37;2.13;;;1.30;99.90;;;;;;5040187;28;20201;-82
2023/03/09 10:03:27;;;;;;;3.47;2.53;;;1.30;99.90;;;;;;5053520;28;20548;-82
2023/03/09 10:06:01;;;;;;;4.33;2.77;;;1.20;99.90;;;;;;5053045;28;20258;-80
2023/03/09 10:08:48;;;;;;;7.17;3.23;;;1.20;99.90;;;;;;5053149;28;20176;-81
2023/03/09 10:11:22;;;;;;;3.53;2.80;;;1.30;99.90;;;;;;5053345;28;20217;-82
2023/03/09 10:14:02;;;;;;;2.57;1.87;;;1.30;99.90;;;;;;5053020;28;20233;-82
2023/03/09 10:16:34;;;;;;;2.83;1.93;;;1.20;99.90;;;;;;5035296;28;20184;-81
2023/03/09 10:19:04;;;;;;;8.77;2.87;;;1.20;99.90;;;;;;5053345;28;20219;-81
2023/03/09 10:22:01;;;;;;;7.60;3.20;;;1.20;99.90;;;;;;5052876;28;20176;-81
2023/03/09 10:24:31;;;;;;;2.43;1.87;;;1.20;99.90;;;;;;5042690;28;20189;-82
2023/03/09 10:27:08;;;;;;;8.57;3.43;;;1.20;99.90;;;;;;5042842;28;20216;-81
2023/03/09 10:29:58;;;;;;;3.77;2.77;;;1.20;99.90;;;;;;5044197;28;20215;-81
2023/03/09 10:32:47;;;;;;;5.57;3.63;;;1.30;99.90;;;;;;5032442;28;20183;-81
2023/03/09 10:35:23;;;;;;;6.10;2.23;;;1.20;99.90;;;;;;5045968;28;20196;-81
2023/03/09 10:37:50;;;;;;;7.27;5.17;;;1.20;99.90;;;;;;5027951;28;20220;-81
2023/03/09 10:40:41;;;;;;;4.07;2.97;;;1.20;99.90;;;;;;5030656;28;20191;-81
2023/03/09 10:43:18;;;;;;;4.10;2.30;;;1.20;99.90;;;;;;5049396;28;20185;-81
2023/03/09 10:45:43;;;;;;;10.73;3.90;;;1.20;99.90;;;;;;5036712;28;20289;-81
2023/03/09 10:48:23;;;;;;;3.43;2.23;;;1.20;99.90;;;;;;5015940;28;20691;-80
2023/03/09 10:51:01;;;;;;;3.50;2.93;;;1.30;99.90;;;;;;5033521;28;20168;-82
2023/03/09 10:53:36;;;;;;;3.80;2.63;;;1.30;99.90;;;;;;5033064;28;20642;-80
2023/03/09 10:56:20;;;;;;;2.73;2.53;;;1.20;99.90;;;;;;5043856;28;20706;-81
2023/03/09 10:59:08;;;;;;;12.43;2.97;;;1.20;99.90;;;;;;5037996;28;20271;-81
2023/03/09 11:01:45;;;;;;;4.97;3.43;;;1.20;99.90;;;;;;5035209;28;20678;-81
2023/03/09 11:04:35;;;;;;;2.67;2.43;;;1.10;99.90;;;;;;5042772;28;20202;-81
2023/03/09 11:07:08;;;;;;;2.70;2.50;;;1.20;99.90;;;;;;5042782;28;20172;-81
2023/03/09 11:09:41;;;;;;;3.67;2.23;;;1.20;99.90;;;;;;5040596;28;20557;-81
2023/03/09 11:12:33;;;;;;;4.80;2.53;;;1.20;99.90;;;;;;5035055;28;20270;-81
2023/03/09 11:15:01;;;;;;;5.53;3.50;;;1.20;99.90;;;;;;5023542;28;20186;-81
2023/03/09 11:17:43;;;;;;;3.63;3.30;;;1.20;99.90;;;;;;5041662;28;20262;-81
2023/03/09 11:20:21;;;;;;;7.33;2.77;;;1.20;99.90;;;;;;5041530;28;20183;-81
2023/03/09 11:22:53;;;;;;;3.20;1.90;;;1.20;99.90;;;;;;5043285;28;20257;-82
2023/03/09 11:25:27;;;;;;;1.87;1.77;;;1.10;99.90;;;;;;5034935;28;20183;-79
2023/03/09 11:28:00;;;;;;;2.27;1.87;;;1.10;99.90;;;;;;5015281;28;20648;-80
2023/03/09 11:30:28;;;;;;;2.30;2.10;;;1.10;99.90;;;;;;5014958;28;20641;-82
2023/03/09 11:32:54;;;;;;;9.50;3.43;;;1.10;99.90;;;;;;5032771;28;20180;-80
2023/03/09 11:35:22;;;;;;;5.07;3.37;;;1.10;99.90;;;;;;5016238;28;20592;-81
2023/03/09 11:37:51;;;;;;;5.60;3.07;;;1.10;99.90;;;;;;5019887;28;20223;-81
2023/03/09 11:40:20;;;;;;;3.63;2.77;;;1.10;99.90;;;;;;5032096;28;20183;-81
2023/03/09 11:42:58;;;;;;;2.43;1.80;;;1.10;99.90;;;;;;5032704;28;20629;-81
2023/03/09 11:45:29;;;;;;;4.70;2.77;;;1.10;99.90;;;;;;5016122;28;20264;-81
2023/03/09 11:47:57;;;;;;;4.70;2.37;;;1.10;99.90;;;;;;5033772;28;20184;-81
2023/03/09 11:50:39;;;;;;;4.23;2.33;;;1.10;99.90;;;;;;5015668;28;20627;-81
2023/03/09 11:53:13;;;;;;;5.17;2.97;;;1.10;99.90;;;;;;5033496;28;20366;-81
2023/03/09 11:55:43;;;;;;;2.33;2.17;;;1.20;99.90;;;;;;5015795;28;20187;-81
2023/03/09 11:58:14;;;;;;;6.33;2.77;;;1.10;99.90;;;;;;5032825;28;20212;-81
2023/03/09 12:00:45;;;;;;;3.30;3.00;;;1.10;99.90;;;;;;5015139;28;20550;-82
2023/03/09 12:03:16;;;;;;;4.80;3.20;;;1.10;99.90;;;;;;5033574;28;20183;-82
2023/03/09 12:05:53;;;;;;;2.37;2.17;;;1.10;99.90;;;;;;5015540;28;20193;-81
2023/03/09 12:08:35;;;;;;;6.90;2.67;;;1.10;99.90;;;;;;5033509;28;20230;-81
2023/03/09 12:11:19;;;;;;;4.60;2.87;;;1.10;99.90;;;;;;5032939;28;20195;-80
2023/03/09 12:13:51;;;;;;;6.40;4.43;;;1.10;99.90;;;;;;5015100;28;20235;-80
2023/03/09 12:16:25;;;;;;;7.90;4.33;;;1.10;99.90;;;;;;5033177;28;20214;-81
2023/03/09 12:19:12;;;;;;;3.27;2.20;;;1.20;99.90;;;;;;5033470;28;20738;-81
2023/03/09 12:21:41;;;;;;;3.63;2.73;;;1.10;99.90;;;;;;5016508;28;20172;-83
2023/03/09 12:24:28;;;;;;;1.83;1.73;;;1.10;99.90;;;;;;5033218;28;20181;-81
2023/03/09 12:27:19;;;;;;;2.37;2.00;;;1.10;99.90;;;;;;5032697;28;20188;-81
2023/03/09 12:29:53;;;;;;;3.43;2.17;;;1.10;99.90;;;;;;5032753;28;20193;-81
2023/03/09 12:32:21;;;;;;;4.53;2.63;;;1.10;99.90;;;;;;5033129;28;20212;-81
2023/03/09 12:34:51;;;;;;;3.20;2.60;;;1.10;99.90;;;;;;5014899;28;20704;-83
2023/03/09 12:37:35;;;;;;;2.77;2.33;;;1.10;99.90;;;;;;5032682;28;20181;-81
2023/03/09 12:40:16;;;;;;;30.73;13.17;;;1.10;99.90;;;;;;5032785;28;20680;-81
2023/03/09 12:42:45;;;;;;;12.27;5.77;;;1.10;99.90;;;;;;5015077;28;20663;-81
2023/03/09 12:45:11;;;;;;;4.03;3.20;;;1.10;99.90;;;;;;5032964;28;20199;-81
2023/03/09 12:47:59;;;;;;;9.27;4.13;;;1.10;99.90;;;;;;5032727;28;20627;-82
2023/03/09 12:50:34;;;;;;;10.23;6.43;;;1.20;99.90;;;;;;5032915;28;20175;-81
2023/03/09 12:53:21;;;;;;;6.47;3.57;;;1.20;99.90;;;;;;5014750;28;20273;-81
2023/03/09 12:55:56;;;;;;;7.37;3.93;;;1.10;99.90;;;;;;5014564;28;20213;-82
2023/03/09 12:58:22;;;;;;;7.13;4.50;;;1.10;99.90;;;;;;5032537;28;20207;-81